Terminal Aerodrome Forecast
Issued by NWS

Current Version | Previous Version | Text Only | Print | Product List | Glossary Off
Versions: 1 2 3 4 5 6 7 8 9 10 11 12 13 14 15 16 17 18 19 20 21

000
FTUS41 KPBZ 040200 AAA
TAFMGW
TAF AMD
KMGW 040238Z 0403/0424 22010KT 5SM -RA OVC020 WS020/23050KT
     FM040400 23008KT 3SM -RA BR OVC015 WS020/23050KT
     FM040700 25008KT 2SM -RA OVC007
     FM042200 28005KT 2SM -SN OVC007=

USA.gov is the U.S. government's official web portal to all federal, state and local government web resources and services.